createdAt,value
2023-03-12T00:01:29.920Z,22.3
2023-03-12T00:06:26.439Z,29.6
2023-03-12T00:11:26.442Z,27.5
2023-03-12T00:16:26.506Z,48.2
2023-03-12T00:21:26.442Z,45.0
2023-03-12T00:26:26.608Z,38.9
2023-03-12T00:31:26.374Z,22.0
2023-03-12T00:36:26.463Z,19.1
2023-03-12T00:41:26.541Z,11.8
2023-03-12T00:46:26.421Z,12.8
2023-03-12T00:51:26.378Z,11.4
2023-03-12T00:56:26.486Z,15.4
2023-03-12T01:01:26.348Z,11.9
2023-03-12T01:06:26.298Z,14.6
2023-03-12T01:11:26.452Z,14.4
2023-03-12T01:16:26.379Z,24.6
2023-03-12T01:21:26.280Z,16.9
2023-03-12T01:26:26.418Z,12.0
2023-03-12T01:31:26.411Z,13.1
2023-03-12T01:36:26.280Z,13.1
2023-03-12T01:41:26.495Z,15.0
2023-03-12T01:46:26.268Z,19.9
2023-03-12T01:51:26.256Z,16.3
2023-03-12T01:56:26.334Z,14.5
2023-03-12T02:01:26.606Z,17.1
2023-03-12T02:06:26.258Z,29.1
2023-03-12T02:11:26.220Z,29.9
2023-03-12T02:16:26.249Z,18.8
2023-03-12T02:21:26.235Z,13.7
2023-03-12T02:26:26.317Z,13.0
2023-03-12T02:31:26.150Z,18.5
2023-03-12T02:36:26.162Z,18.1
2023-03-12T02:41:26.265Z,16.1
2023-03-12T02:46:26.193Z,15.8
2023-03-12T02:51:26.102Z,15.2
2023-03-12T02:56:26.231Z,18.2
2023-03-12T03:01:26.191Z,15.2
2023-03-12T03:06:26.093Z,15.0
2023-03-12T03:11:26.202Z,17.2
2023-03-12T03:16:26.134Z,20.4
2023-03-12T03:21:26.187Z,19.1
2023-03-12T03:26:26.274Z,20.9
2023-03-12T03:31:26.207Z,16.3
2023-03-12T03:36:26.048Z,15.3
2023-03-12T03:41:26.320Z,19.1
2023-03-12T03:46:26.102Z,14.3
2023-03-12T03:51:26.044Z,14.7
2023-03-12T03:56:26.119Z,14.1
2023-03-12T04:01:26.023Z,14.2
2023-03-12T04:06:26.019Z,14.2
2023-03-12T04:11:26.081Z,14.4
2023-03-12T04:16:26.195Z,14.5
2023-03-12T04:21:25.999Z,12.6
2023-03-12T04:26:26.104Z,13.0
2023-03-12T04:31:26.065Z,12.5
2023-03-12T04:36:25.944Z,13.8
2023-03-12T04:41:26.031Z,12.6
2023-03-12T04:46:25.956Z,10.7
2023-03-12T04:51:25.920Z,11.0
2023-03-12T04:56:26.040Z,12.6
2023-03-12T05:01:25.910Z,15.0
2023-03-12T05:06:25.876Z,15.0
2023-03-12T05:11:26.235Z,14.7
2023-03-12T05:16:25.848Z,13.2
2023-03-12T05:21:25.890Z,13.1
2023-03-12T05:26:25.991Z,16.9
2023-03-12T05:31:25.887Z,22.6
2023-03-12T05:36:25.858Z,20.7
2023-03-12T05:41:25.951Z,19.9
2023-03-12T05:46:25.969Z,19.7
2023-03-12T05:51:25.900Z,18.4
2023-03-12T05:56:25.983Z,17.0
2023-03-12T06:01:25.868Z,15.5
2023-03-12T06:06:25.814Z,14.9
2023-03-12T06:11:25.942Z,12.9
2023-03-12T06:16:25.771Z,12.5
2023-03-12T06:21:25.858Z,12.7
2023-03-12T06:26:25.887Z,14.4
2023-03-12T06:31:25.807Z,12.0
2023-03-12T06:36:26.522Z,11.1
2023-03-12T06:41:26.462Z,60.2
2023-03-12T06:46:26.479Z,34.9
2023-03-12T06:51:26.454Z,43.9
2023-03-12T06:56:25.684Z,71.6
2023-03-12T07:01:25.703Z,25.2
2023-03-12T07:06:25.836Z,14.7
2023-03-12T07:11:25.644Z,9.8
2023-03-12T07:16:25.690Z,32.9
2023-03-12T07:21:25.828Z,11.6
2023-03-12T07:26:25.645Z,13.9
2023-03-12T07:31:26.427Z,11.7
2023-03-12T07:36:25.655Z,39.8
2023-03-12T07:41:25.694Z,16.4
2023-03-12T07:46:25.900Z,13.2
2023-03-12T07:51:25.685Z,14.1
2023-03-12T07:56:25.735Z,6.7
2023-03-12T08:01:25.804Z,9.4
2023-03-12T08:06:25.651Z,6.6
2023-03-12T08:11:25.636Z,6.4
2023-03-12T08:16:25.898Z,8.1
2023-03-12T08:21:25.684Z,5.3
2023-03-12T08:26:25.623Z,8.2
2023-03-12T08:31:25.776Z,13.1
2023-03-12T08:36:25.651Z,11.9
2023-03-12T08:41:25.533Z,13.9
2023-03-12T08:46:25.809Z,10.1
2023-03-12T08:51:25.566Z,6.4
2023-03-12T08:56:25.637Z,5.7
2023-03-12T09:01:25.778Z,5.5
2023-03-12T09:06:25.597Z,4.8
2023-03-12T09:11:25.501Z,6.7
2023-03-12T09:16:25.777Z,9.9
2023-03-12T09:21:25.418Z,8.2
2023-03-12T09:26:25.416Z,5.3
2023-03-12T09:31:25.619Z,33.5
2023-03-12T09:36:25.448Z,8.5
2023-03-12T09:41:25.525Z,8.1
2023-03-12T09:46:25.728Z,8.6
2023-03-12T09:51:25.545Z,10.6
2023-03-12T09:56:25.461Z,19.6
2023-03-12T10:01:25.535Z,36.5
2023-03-12T10:06:25.479Z,20.5
2023-03-12T10:11:25.608Z,26.3
2023-03-12T10:16:25.385Z,9.3
2023-03-12T10:21:25.346Z,7.8
2023-03-12T10:26:25.595Z,7.5
2023-03-12T10:31:25.569Z,14.6
2023-03-12T10:36:25.365Z,11.4
2023-03-12T10:41:25.807Z,18.7
2023-03-12T10:46:25.294Z,7.6
2023-03-12T10:51:25.393Z,12.1
2023-03-12T10:56:25.510Z,12.5
2023-03-12T11:01:25.388Z,13.9
2023-03-12T11:06:25.301Z,5.9
2023-03-12T11:11:25.384Z,3.4
2023-03-12T11:16:25.365Z,3.6
2023-03-12T11:21:25.223Z,4.7
2023-03-12T11:26:25.288Z,9.7
2023-03-12T11:31:25.280Z,4.4
2023-03-12T11:36:25.171Z,9.6
2023-03-12T11:41:25.443Z,7.8
2023-03-12T11:46:25.322Z,10.0
2023-03-12T11:51:25.293Z,8.5
2023-03-12T11:56:25.358Z,12.3
2023-03-12T12:01:25.128Z,18.5
2023-03-12T12:06:36.009Z,11.2
2023-03-12T12:11:25.301Z,12.6
2023-03-12T12:16:25.277Z,7.9
2023-03-12T12:21:25.118Z,6.4
2023-03-12T12:26:40.409Z,7.2
2023-03-12T12:31:25.051Z,9.1
2023-03-12T12:36:25.236Z,4.7
2023-03-12T12:41:25.166Z,15.4
2023-03-12T12:46:25.236Z,7.6
2023-03-12T12:51:25.262Z,5.6
2023-03-12T12:56:25.161Z,5.5
2023-03-12T13:01:35.734Z,4.5
2023-03-12T13:06:25.039Z,3.2
2023-03-12T13:11:25.328Z,3.8
2023-03-12T13:16:25.211Z,6.2
2023-03-12T13:21:25.254Z,10.5
2023-03-12T13:26:25.010Z,6.9
2023-03-12T13:31:25.055Z,17.4
2023-03-12T13:36:25.159Z,23.1
2023-03-12T13:41:26.522Z,16.4
2023-03-12T13:46:26.422Z,5.7
2023-03-12T13:51:24.995Z,7.7
2023-03-12T13:56:25.006Z,7.8
2023-03-12T14:01:26.784Z,7.6
2023-03-12T14:06:25.116Z,5.0
2023-03-12T14:11:26.369Z,8.5
2023-03-12T14:16:31.288Z,7.7
2023-03-12T14:21:24.907Z,10.8
2023-03-12T14:26:24.967Z,5.9
2023-03-12T14:31:26.231Z,5.5
2023-03-12T14:36:25.168Z,5.5
2023-03-12T14:41:28.205Z,6.5
2023-03-12T14:46:25.010Z,5.8
2023-03-12T14:51:25.630Z,11.5
2023-03-12T14:56:25.540Z,40.4
2023-03-12T15:01:25.684Z,33.5
2023-03-12T15:06:25.558Z,56.1
2023-03-12T15:11:25.126Z,52.0
2023-03-12T15:16:28.334Z,24.7
2023-03-12T15:21:25.896Z,18.9
2023-03-12T15:26:25.877Z,10.9
2023-03-12T15:31:26.309Z,5.8
2023-03-12T15:36:27.073Z,25.5
2023-03-12T15:41:26.856Z,47.5
2023-03-12T15:46:26.192Z,52.7
2023-03-12T15:51:26.151Z,12.6
2023-03-12T15:56:32.030Z,14.7
2023-03-12T16:01:25.851Z,8.7
2023-03-12T16:06:25.965Z,7.5
2023-03-12T16:11:25.790Z,19.9
2023-03-12T16:16:25.895Z,13.1
2023-03-12T16:21:26.169Z,10.0
2023-03-12T16:26:26.977Z,10.2
2023-03-12T16:31:25.765Z,10.2
2023-03-12T16:36:25.951Z,11.8
2023-03-12T16:41:26.054Z,9.9
2023-03-12T16:46:25.739Z,10.8
2023-03-12T16:51:25.752Z,8.0
2023-03-12T16:56:25.868Z,10.9
2023-03-12T17:01:25.783Z,14.4
2023-03-12T17:06:25.943Z,13.7
2023-03-12T17:11:27.040Z,10.8
2023-03-12T17:16:25.798Z,12.3
2023-03-12T17:21:25.598Z,11.2
2023-03-12T17:26:25.580Z,12.3
2023-03-12T17:31:26.486Z,13.3
2023-03-12T17:36:25.647Z,14.3
2023-03-12T17:41:27.200Z,14.0
2023-03-12T17:46:25.667Z,14.0
2023-03-12T17:51:25.710Z,11.1
2023-03-12T17:56:25.600Z,12.2
2023-03-12T18:01:25.706Z,9.6
2023-03-12T18:06:25.711Z,10.1
2023-03-12T18:11:25.458Z,11.7
2023-03-12T18:16:25.600Z,11.7
2023-03-12T18:21:25.917Z,12.3
2023-03-12T18:26:25.677Z,12.1
2023-03-12T18:31:25.546Z,10.6
2023-03-12T18:36:25.567Z,9.0
2023-03-12T18:41:25.758Z,9.6
2023-03-12T18:46:26.228Z,9.1
2023-03-12T18:51:25.740Z,7.1
2023-03-12T18:56:26.362Z,6.8
2023-03-12T19:01:25.880Z,8.0
2023-03-12T19:06:26.197Z,7.7
2023-03-12T19:11:25.591Z,6.3
2023-03-12T19:16:25.877Z,6.5
2023-03-12T19:21:25.468Z,7.9
2023-03-12T19:26:25.394Z,10.2
2023-03-12T19:31:25.723Z,17.9
2023-03-12T19:36:25.394Z,20.7
2023-03-12T19:41:25.488Z,11.3
2023-03-12T19:46:25.657Z,8.2
2023-03-12T19:51:25.597Z,7.1
2023-03-12T19:56:25.295Z,7.5
2023-03-12T20:01:25.456Z,7.6
2023-03-12T20:06:25.445Z,9.3
2023-03-12T20:11:26.117Z,10.4
2023-03-12T20:16:25.629Z,11.3
2023-03-12T20:21:25.641Z,9.8
2023-03-12T20:26:25.322Z,10.3
2023-03-12T20:31:25.309Z,19.5
2023-03-12T20:36:25.729Z,26.6
2023-03-12T20:41:25.274Z,17.0
2023-03-12T20:46:25.264Z,17.0
2023-03-12T20:51:26.318Z,15.4
2023-03-12T20:56:25.185Z,16.2
2023-03-12T21:01:25.293Z,15.5
2023-03-12T21:06:25.244Z,14.4
2023-03-12T21:11:25.249Z,13.1
2023-03-12T21:16:25.392Z,14.0
2023-03-12T21:21:25.175Z,13.0
2023-03-12T21:26:25.214Z,12.9
2023-03-12T21:31:25.362Z,13.2
2023-03-12T21:36:25.332Z,12.9
2023-03-12T21:41:25.207Z,13.4
2023-03-12T21:46:25.344Z,13.2
2023-03-12T21:51:26.429Z,14.8
2023-03-12T21:56:25.090Z,15.3
2023-03-12T22:01:25.199Z,16.5
2023-03-12T22:06:25.031Z,15.4
2023-03-12T22:11:25.033Z,17.8
2023-03-12T22:16:25.223Z,15.0
2023-03-12T22:21:25.011Z,15.9
2023-03-12T22:26:25.082Z,15.6
2023-03-12T22:31:25.175Z,15.7
2023-03-12T22:36:25.017Z,16.3
2023-03-12T22:41:25.006Z,16.0
2023-03-12T22:46:25.185Z,14.6
2023-03-12T22:51:25.102Z,13.4
2023-03-12T22:56:25.055Z,12.7
2023-03-12T23:01:25.252Z,12.6
2023-03-12T23:06:25.062Z,13.5
2023-03-12T23:11:24.920Z,14.0
2023-03-12T23:16:25.230Z,13.9
2023-03-12T23:21:25.076Z,13.3
2023-03-12T23:26:25.055Z,14.5
2023-03-12T23:31:24.946Z,12.8
2023-03-12T23:36:25.156Z,11.9
2023-03-12T23:41:24.981Z,12.4
2023-03-12T23:46:24.936Z,10.6
2023-03-12T23:51:24.889Z,9.8
2023-03-12T23:56:24.838Z,8.3
